createdAt,value
2023-04-19T00:01:42.643Z,15.47
2023-04-19T00:04:09.091Z,15.48
2023-04-19T00:06:35.442Z,15.48
2023-04-19T00:09:01.569Z,15.47
2023-04-19T00:11:27.677Z,15.48
2023-04-19T00:13:53.815Z,15.47
2023-04-19T00:16:19.908Z,15.47
2023-04-19T00:18:46.038Z,15.48
2023-04-19T00:21:12.125Z,15.47
2023-04-19T00:23:38.216Z,15.47
2023-04-19T00:26:04.320Z,15.46
2023-04-19T00:28:30.428Z,15.46
2023-04-19T00:30:56.557Z,15.47
2023-04-19T00:33:22.739Z,15.47
2023-04-19T00:35:48.825Z,15.47
2023-04-19T00:38:14.923Z,15.46
2023-04-19T00:40:41.343Z,15.47
2023-04-19T00:43:07.433Z,15.47
2023-04-19T00:45:33.529Z,15.48
2023-04-19T00:47:59.722Z,15.47
2023-04-19T00:50:25.863Z,15.47
2023-04-19T00:52:51.952Z,15.48
2023-04-19T00:55:18.090Z,15.48
2023-04-19T00:57:44.200Z,15.47
2023-04-19T01:00:10.280Z,15.48
2023-04-19T01:02:36.522Z,15.47
2023-04-19T01:05:02.704Z,15.48
2023-04-19T01:07:28.794Z,15.47
2023-04-19T01:09:54.927Z,15.48
2023-04-19T01:12:21.024Z,15.47
2023-04-19T01:14:47.118Z,15.48
2023-04-19T01:17:13.235Z,15.47
2023-04-19T01:19:39.316Z,15.47
2023-04-19T01:22:05.414Z,15.46
2023-04-19T01:24:31.530Z,15.47
2023-04-19T01:26:57.626Z,15.47
2023-04-19T01:29:23.746Z,15.48
2023-04-19T01:31:49.997Z,15.47
2023-04-19T01:34:16.409Z,15.47
2023-04-19T01:36:42.649Z,15.47
2023-04-19T01:39:08.744Z,15.48
2023-04-19T01:41:34.844Z,15.48
2023-04-19T01:44:00.960Z,15.47
2023-04-19T01:46:27.242Z,15.48
2023-04-19T01:48:53.343Z,15.47
2023-04-19T01:51:19.434Z,15.47
2023-04-19T01:53:45.572Z,15.48
2023-04-19T01:56:11.660Z,15.47
2023-04-19T01:58:37.744Z,15.48
2023-04-19T02:01:03.900Z,15.46
2023-04-19T02:03:30.300Z,15.48
2023-04-19T02:05:56.534Z,15.46
2023-04-19T02:08:22.644Z,15.46
2023-04-19T02:10:48.732Z,15.47
2023-04-19T02:13:14.841Z,15.46
2023-04-19T02:15:40.944Z,15.47
2023-04-19T02:18:07.117Z,15.47
2023-04-19T02:20:33.468Z,15.46
2023-04-19T02:22:59.577Z,15.46
2023-04-19T02:25:25.676Z,15.48
2023-04-19T02:27:51.765Z,15.48
2023-04-19T02:30:17.880Z,15.47
2023-04-19T02:32:44.046Z,15.46
2023-04-19T02:35:10.158Z,15.47
2023-04-19T02:37:36.272Z,15.48
2023-04-19T02:40:02.374Z,15.47
2023-04-19T02:42:28.489Z,15.47
2023-04-19T02:44:54.601Z,15.46
2023-04-19T02:47:20.703Z,15.46
2023-04-19T02:49:46.792Z,15.46
2023-04-19T02:52:12.915Z,15.45
2023-04-19T02:54:39.008Z,15.47
2023-04-19T02:57:05.109Z,15.46
2023-04-19T02:59:31.243Z,15.46
2023-04-19T03:01:57.382Z,15.46
2023-04-19T03:04:23.563Z,15.46
2023-04-19T03:06:49.750Z,15.45
2023-04-19T03:09:15.852Z,15.46
2023-04-19T03:11:41.954Z,15.47
2023-04-19T03:14:08.079Z,15.45
2023-04-19T03:16:34.153Z,15.46
2023-04-19T03:19:00.239Z,15.46
2023-04-19T03:21:26.349Z,15.45
2023-04-19T03:23:52.471Z,15.45
2023-04-19T03:26:18.549Z,15.45
2023-04-19T03:28:44.653Z,15.46
2023-04-19T03:31:10.821Z,15.45
2023-04-19T03:33:36.978Z,15.46
2023-04-19T03:36:03.084Z,15.45
2023-04-19T03:38:29.186Z,15.45
2023-04-19T03:40:55.276Z,15.44
2023-04-19T03:43:21.405Z,15.45
2023-04-19T03:45:47.537Z,15.44
2023-04-19T03:48:13.663Z,15.45
2023-04-19T03:50:39.788Z,15.45
2023-04-19T03:53:05.885Z,15.45
2023-04-19T03:55:31.982Z,15.43
2023-04-19T03:57:58.097Z,15.44
2023-04-19T04:00:24.203Z,15.45
2023-04-19T04:02:50.482Z,15.44
2023-04-19T04:05:16.925Z,15.44
2023-04-19T04:07:43.191Z,15.43
2023-04-19T04:10:09.302Z,15.45
2023-04-19T04:12:35.490Z,15.44
2023-04-19T04:15:01.604Z,15.43
2023-04-19T04:17:27.770Z,15.43
2023-04-19T04:19:53.949Z,15.44
2023-04-19T04:22:20.049Z,15.42
2023-04-19T04:24:46.137Z,15.43
2023-04-19T04:27:12.239Z,15.43
2023-04-19T04:29:38.360Z,15.43
2023-04-19T04:32:04.543Z,15.43
2023-04-19T04:34:30.744Z,15.43
2023-04-19T04:36:56.836Z,15.42
2023-04-19T04:39:22.943Z,15.42
2023-04-19T04:41:49.064Z,15.41
2023-04-19T04:44:15.159Z,15.41
2023-04-19T04:46:41.257Z,15.41
2023-04-19T04:49:07.377Z,15.41
2023-04-19T04:51:33.466Z,15.42
2023-04-19T04:53:59.563Z,15.41
2023-04-19T04:56:25.856Z,15.41
2023-04-19T04:58:52.078Z,15.41
2023-04-19T05:01:18.220Z,15.41
2023-04-19T05:03:44.413Z,15.41
2023-04-19T05:06:10.527Z,15.41
2023-04-19T05:08:36.632Z,15.40
2023-04-19T05:11:02.751Z,15.40
2023-04-19T05:13:28.837Z,15.40
2023-04-19T05:15:55.034Z,15.40
2023-04-19T05:18:21.173Z,15.40
2023-04-19T05:20:47.264Z,15.39
2023-04-19T05:23:13.394Z,15.40
2023-04-19T05:25:39.498Z,15.41
2023-04-19T05:28:05.622Z,15.40
2023-04-19T05:30:31.721Z,15.40
2023-04-19T05:32:57.857Z,15.40
2023-04-19T05:35:23.968Z,15.40
2023-04-19T05:37:50.056Z,15.40
2023-04-19T05:40:16.183Z,15.39
2023-04-19T05:42:42.296Z,15.39
2023-04-19T05:45:08.452Z,15.40
2023-04-19T05:47:34.593Z,15.38
2023-04-19T05:50:00.694Z,15.40
2023-04-19T05:52:26.814Z,15.38
2023-04-19T05:54:52.925Z,15.38
2023-04-19T05:57:19.023Z,15.38
2023-04-19T05:59:45.193Z,15.39
2023-04-19T06:02:11.405Z,15.38
2023-04-19T06:04:38.065Z,15.37
2023-04-19T06:07:06.190Z,15.37
2023-04-19T06:09:34.386Z,15.38
2023-04-19T06:12:00.497Z,15.37
2023-04-19T06:14:26.580Z,15.37
2023-04-19T06:16:52.681Z,15.37
2023-04-19T06:19:18.783Z,15.38
2023-04-19T06:21:44.888Z,15.37
2023-04-19T06:24:11.013Z,15.37
2023-04-19T06:26:37.111Z,15.37
2023-04-19T06:29:03.220Z,15.37
2023-04-19T06:31:29.426Z,15.37
2023-04-19T06:33:55.607Z,15.36
2023-04-19T06:36:21.723Z,15.37
2023-04-19T06:38:47.856Z,15.36
2023-04-19T06:41:13.976Z,15.37
2023-04-19T06:43:40.236Z,15.36
2023-04-19T06:46:06.446Z,15.37
2023-04-19T06:48:32.577Z,15.37
2023-04-19T06:50:58.765Z,15.37
2023-04-19T06:53:24.871Z,15.37
2023-04-19T06:55:50.983Z,15.36
2023-04-19T06:58:17.072Z,15.37
2023-04-19T07:00:43.229Z,15.36
2023-04-19T07:03:09.424Z,15.37
2023-04-19T07:05:35.574Z,15.37
2023-04-19T07:08:01.686Z,15.37
2023-04-19T07:10:27.801Z,15.37
2023-04-19T07:12:53.910Z,15.37
2023-04-19T07:15:20.047Z,15.37
2023-04-19T07:17:46.194Z,15.37
2023-04-19T07:20:12.368Z,15.37
2023-04-19T07:22:38.522Z,15.38
2023-04-19T07:25:04.616Z,15.37
2023-04-19T07:27:30.708Z,15.38
2023-04-19T07:29:56.812Z,15.38
2023-04-19T07:32:22.926Z,15.38
2023-04-19T07:34:49.111Z,15.38
2023-04-19T07:37:15.222Z,15.37
2023-04-19T07:39:41.328Z,15.37
2023-04-19T07:42:07.436Z,15.38
2023-04-19T07:44:33.554Z,15.37
2023-04-19T07:46:59.789Z,15.37
2023-04-19T07:49:26.006Z,15.37
2023-04-19T07:51:52.113Z,15.37
2023-04-19T07:54:18.428Z,15.37
2023-04-19T07:56:44.636Z,15.38
2023-04-19T07:59:10.844Z,15.38
2023-04-19T08:01:37.097Z,15.38
2023-04-19T08:04:03.774Z,15.38
2023-04-19T08:06:30.472Z,15.38
2023-04-19T08:08:56.577Z,15.38
2023-04-19T08:11:22.672Z,15.38
2023-04-19T08:13:59.485Z,15.39
2023-04-19T08:17:10.944Z,15.38
2023-04-19T08:19:19.593Z,15.38
2023-04-19T08:21:45.756Z,15.38
2023-04-19T08:24:11.873Z,15.38
2023-04-19T08:26:37.995Z,15.39
2023-04-19T08:29:04.080Z,15.39
2023-04-19T08:31:30.208Z,15.39
2023-04-19T08:33:56.344Z,15.39
2023-04-19T08:36:32.462Z,15.39
2023-04-19T08:39:06.904Z,15.39
2023-04-19T08:41:36.419Z,15.40
2023-04-19T08:44:02.542Z,15.39
2023-04-19T08:46:28.736Z,15.40
2023-04-19T08:48:54.979Z,15.40
2023-04-19T08:51:21.115Z,15.40
2023-04-19T08:53:47.236Z,15.40
2023-04-19T08:56:21.180Z,15.39
2023-04-19T08:59:11.553Z,15.39
2023-04-19T09:01:44.853Z,15.39
2023-04-19T09:04:34.625Z,15.40
2023-04-19T09:06:57.341Z,15.40
2023-04-19T09:09:35.593Z,15.40
2023-04-19T09:12:05.122Z,15.40
2023-04-19T09:14:31.255Z,15.40
2023-04-19T09:16:57.364Z,15.40
2023-04-19T09:19:25.243Z,15.40
2023-04-19T09:21:51.826Z,15.41
2023-04-19T09:24:18.021Z,15.39
2023-04-19T09:26:44.123Z,15.40
2023-04-19T09:29:11.129Z,15.40
2023-04-19T09:34:07.757Z,15.40
2023-04-19T09:36:33.910Z,15.40
2023-04-19T09:38:59.995Z,15.41
2023-04-19T09:41:26.090Z,15.41
2023-04-19T09:44:08.965Z,15.41
2023-04-19T09:46:38.303Z,15.40
2023-04-19T09:49:13.231Z,15.41
2023-04-19T09:51:46.365Z,15.41
2023-04-19T09:54:12.471Z,15.40
2023-04-19T09:56:38.548Z,15.41
2023-04-19T09:59:19.935Z,15.40
2023-04-19T10:01:46.722Z,15.40
2023-04-19T10:04:24.077Z,15.40
2023-04-19T10:09:24.623Z,15.41
2023-04-19T10:11:52.234Z,15.40
2023-04-19T10:14:20.776Z,15.40
2023-04-19T10:16:46.911Z,15.41
2023-04-19T10:19:13.141Z,15.41
2023-04-19T10:21:39.333Z,15.41
2023-04-19T10:24:05.422Z,15.41
2023-04-19T10:26:31.507Z,15.41
2023-04-19T10:28:57.629Z,15.42
2023-04-19T10:31:23.904Z,15.42
2023-04-19T10:33:50.088Z,15.41
2023-04-19T10:36:16.216Z,15.42
2023-04-19T10:38:42.305Z,15.42
2023-04-19T10:41:08.399Z,15.42
2023-04-19T10:43:34.615Z,15.42
2023-04-19T10:46:00.842Z,15.40
2023-04-19T10:48:26.945Z,15.41
2023-04-19T10:50:53.042Z,15.40
2023-04-19T10:53:19.155Z,15.40
2023-04-19T10:55:45.247Z,15.41
2023-04-19T10:58:11.373Z,15.42
2023-04-19T11:00:37.463Z,15.41
2023-04-19T11:03:03.723Z,15.41
2023-04-19T11:05:30.297Z,15.40
2023-04-19T11:07:56.399Z,15.40
2023-04-19T11:10:22.640Z,15.40
2023-04-19T11:12:48.777Z,15.40
2023-04-19T11:15:14.882Z,15.39
2023-04-19T11:17:40.986Z,15.40
2023-04-19T11:20:07.146Z,15.41
2023-04-19T11:22:33.336Z,15.40
2023-04-19T11:24:59.451Z,15.40
2023-04-19T11:27:25.571Z,15.40
2023-04-19T11:29:51.686Z,15.40
2023-04-19T11:32:17.792Z,15.42
2023-04-19T11:34:43.917Z,15.40
2023-04-19T11:37:10.038Z,15.41
2023-04-19T11:39:36.132Z,15.41
2023-04-19T11:42:02.260Z,15.42
2023-04-19T11:44:28.383Z,15.42
2023-04-19T11:46:54.577Z,15.42
2023-04-19T11:49:20.738Z,15.42
2023-04-19T11:51:46.845Z,15.42
2023-04-19T11:54:12.999Z,15.42
2023-04-19T11:56:39.112Z,15.42
2023-04-19T11:59:05.208Z,15.42
2023-04-19T12:01:31.320Z,15.41
2023-04-19T12:03:57.711Z,15.41
2023-04-19T12:06:23.972Z,15.41
2023-04-19T12:08:50.085Z,15.41
2023-04-19T12:11:16.795Z,15.40
2023-04-19T12:13:42.878Z,15.41
2023-04-19T12:16:09.035Z,15.42
2023-04-19T12:18:35.196Z,15.42
2023-04-19T12:21:01.523Z,15.42
2023-04-19T12:23:27.715Z,15.42
2023-04-19T12:25:53.846Z,15.42
2023-04-19T12:28:20.006Z,15.41
2023-04-19T12:30:46.139Z,15.41
2023-04-19T12:33:12.277Z,15.41
2023-04-19T12:35:38.392Z,15.42
2023-04-19T12:38:04.488Z,15.41
2023-04-19T12:40:30.724Z,15.42
2023-04-19T12:42:56.875Z,15.42
2023-04-19T12:45:22.987Z,15.43
2023-04-19T12:47:49.171Z,15.42
2023-04-19T12:50:15.303Z,15.42
2023-04-19T12:52:41.432Z,15.41
2023-04-19T12:55:07.552Z,15.42
2023-04-19T12:57:33.637Z,15.41
2023-04-19T12:59:59.739Z,15.41
2023-04-19T13:02:25.942Z,15.40
2023-04-19T13:04:52.373Z,15.42
2023-04-19T13:07:18.593Z,15.41
2023-04-19T13:09:44.690Z,15.41
2023-04-19T13:12:10.780Z,15.40
2023-04-19T13:14:36.870Z,15.42
2023-04-19T13:17:03.118Z,15.41
2023-04-19T13:19:29.207Z,15.41
2023-04-19T13:21:55.311Z,15.42
2023-04-19T13:24:21.454Z,15.42
2023-04-19T13:26:47.622Z,15.41
2023-04-19T13:29:13.735Z,15.40
2023-04-19T13:31:39.888Z,15.41
2023-04-19T13:34:06.018Z,15.42
2023-04-19T13:36:32.142Z,15.42
2023-04-19T13:38:58.288Z,15.42
2023-04-19T13:41:24.391Z,15.42
2023-04-19T13:43:50.512Z,15.42
2023-04-19T13:46:16.666Z,15.41
2023-04-19T13:48:42.789Z,15.42
2023-04-19T13:51:08.895Z,15.41
2023-04-19T13:53:35.031Z,15.42
2023-04-19T13:56:01.123Z,15.43
2023-04-19T13:58:27.241Z,15.42
2023-04-19T14:00:53.555Z,15.43
2023-04-19T14:03:19.910Z,15.43
2023-04-19T14:05:46.107Z,15.43
2023-04-19T14:08:12.235Z,15.43
2023-04-19T14:10:38.332Z,15.43
2023-04-19T14:13:04.438Z,15.42
2023-04-19T14:15:30.547Z,15.43
2023-04-19T14:17:56.742Z,15.43
2023-04-19T14:20:22.884Z,15.44
2023-04-19T14:22:49.011Z,15.45
2023-04-19T14:25:15.112Z,15.45
2023-04-19T14:27:41.198Z,15.45
2023-04-19T14:30:07.321Z,15.45
2023-04-19T14:32:33.524Z,15.45
2023-04-19T14:34:59.729Z,15.45
2023-04-19T14:37:25.861Z,15.45
2023-04-19T14:39:51.987Z,15.46
2023-04-19T14:42:20.096Z,15.46
2023-04-19T14:44:48.328Z,15.45
2023-04-19T14:47:14.417Z,15.45
2023-04-19T14:49:40.501Z,15.46
2023-04-19T14:52:06.621Z,15.48
2023-04-19T14:54:32.720Z,15.47
2023-04-19T14:56:58.822Z,15.46
2023-04-19T14:59:24.968Z,15.47
2023-04-19T15:01:51.119Z,15.47
2023-04-19T15:04:17.389Z,15.47
2023-04-19T15:06:45.370Z,15.47
2023-04-19T15:09:11.461Z,15.47
2023-04-19T15:11:37.593Z,15.49
2023-04-19T15:14:03.702Z,15.49
2023-04-19T15:16:29.888Z,15.49
2023-04-19T15:18:56.002Z,15.49
2023-04-19T15:21:24.614Z,15.49
2023-04-19T15:23:51.021Z,15.49
2023-04-19T15:26:17.106Z,15.51
2023-04-19T15:28:43.230Z,15.50
2023-04-19T15:31:09.369Z,15.50
2023-04-19T15:33:35.510Z,15.51
2023-04-19T15:36:01.614Z,15.52
2023-04-19T15:38:27.766Z,15.50
2023-04-19T15:40:53.856Z,15.50
2023-04-19T15:43:20.115Z,15.50
2023-04-19T15:45:46.259Z,15.51
2023-04-19T15:48:12.370Z,15.50
2023-04-19T15:50:38.480Z,15.51
2023-04-19T15:53:04.575Z,15.51
2023-04-19T15:55:30.664Z,15.51
2023-04-19T15:57:56.770Z,15.52
2023-04-19T16:00:22.883Z,15.52
2023-04-19T16:02:49.123Z,15.53
2023-04-19T16:05:15.359Z,15.53
2023-04-19T16:07:41.445Z,15.54
2023-04-19T16:10:07.550Z,15.52
2023-04-19T16:12:33.720Z,15.52
2023-04-19T16:14:59.825Z,15.53
2023-04-19T16:17:25.946Z,15.54
2023-04-19T16:19:52.061Z,15.54
2023-04-19T16:22:18.151Z,15.54
2023-04-19T16:24:44.259Z,15.54
2023-04-19T16:27:10.426Z,15.55
2023-04-19T16:29:36.524Z,15.55
2023-04-19T16:32:02.664Z,15.56
2023-04-19T16:34:28.790Z,15.55
2023-04-19T16:36:54.907Z,15.56
2023-04-19T16:39:21.008Z,15.56
2023-04-19T16:41:47.109Z,15.55
2023-04-19T16:44:13.208Z,15.57
2023-04-19T16:46:39.442Z,15.56
2023-04-19T16:49:05.753Z,15.58
2023-04-19T16:51:31.839Z,15.57
2023-04-19T16:53:57.934Z,15.57
2023-04-19T16:56:24.046Z,15.58
2023-04-19T16:58:50.176Z,15.57
2023-04-19T17:01:16.398Z,15.58
2023-04-19T17:03:42.746Z,15.58
2023-04-19T17:06:09.006Z,15.58
2023-04-19T17:08:35.102Z,15.57
2023-04-19T17:11:01.227Z,15.57
2023-04-19T17:13:27.340Z,15.56
2023-04-19T17:15:53.487Z,15.57
2023-04-19T17:18:19.603Z,15.57
2023-04-19T17:20:45.683Z,15.57
2023-04-19T17:23:11.778Z,15.58
2023-04-19T17:25:38.813Z,15.59
2023-04-19T17:28:04.965Z,15.58
2023-04-19T17:30:31.068Z,15.58
2023-04-19T17:32:57.208Z,15.59
2023-04-19T17:35:23.332Z,15.59
2023-04-19T17:37:49.430Z,15.60
2023-04-19T17:40:15.571Z,15.61
2023-04-19T17:42:41.683Z,15.61
2023-04-19T17:45:07.774Z,15.61
2023-04-19T17:47:33.950Z,15.62
2023-04-19T17:50:00.101Z,15.61
2023-04-19T17:52:26.198Z,15.60
2023-04-19T17:54:52.324Z,15.61
2023-04-19T17:57:18.423Z,15.60
2023-04-19T17:59:44.525Z,15.61
2023-04-19T18:02:10.901Z,15.60
2023-04-19T18:04:37.214Z,15.60
2023-04-19T18:07:03.365Z,15.60
2023-04-19T18:09:29.486Z,15.60
2023-04-19T18:11:55.584Z,15.61
2023-04-19T18:14:21.671Z,15.62
2023-04-19T18:16:47.909Z,15.61
2023-04-19T18:19:14.182Z,15.61
2023-04-19T18:21:40.376Z,15.60
2023-04-19T18:24:06.487Z,15.61
2023-04-19T18:26:32.595Z,15.61
2023-04-19T18:28:58.689Z,15.60
2023-04-19T18:31:24.941Z,15.61
2023-04-19T18:33:51.032Z,15.61
2023-04-19T18:36:17.128Z,15.61
2023-04-19T18:38:43.269Z,15.61
2023-04-19T18:41:09.376Z,15.62
2023-04-19T18:43:36.176Z,15.61
2023-04-19T18:46:02.482Z,15.62
2023-04-19T18:48:28.608Z,15.62
2023-04-19T18:50:54.702Z,15.62
2023-04-19T18:53:20.808Z,15.63
2023-04-19T18:55:47.158Z,15.61
2023-04-19T18:58:13.271Z,15.62
2023-04-19T19:00:39.393Z,15.61
2023-04-19T19:03:05.833Z,15.62
2023-04-19T19:05:34.291Z,15.62
2023-04-19T19:08:00.746Z,15.62
2023-04-19T19:13:00.259Z,15.61
2023-04-19T19:15:26.358Z,15.62
2023-04-19T19:17:52.476Z,15.62
2023-04-19T19:20:18.600Z,15.62
2023-04-19T19:22:45.104Z,15.62
2023-04-19T19:25:11.220Z,15.62
2023-04-19T19:27:37.302Z,15.63
2023-04-19T19:30:03.546Z,15.63
2023-04-19T19:32:29.666Z,15.64
2023-04-19T19:35:01.188Z,15.63
2023-04-19T19:37:29.379Z,15.63
2023-04-19T19:39:56.905Z,15.64
2023-04-19T19:42:23.163Z,15.64
2023-04-19T19:44:49.266Z,15.64
2023-04-19T19:47:17.075Z,15.64
2023-04-19T19:52:12.547Z,15.63
2023-04-19T19:54:38.659Z,15.64
2023-04-19T19:59:34.800Z,15.64
2023-04-19T20:02:01.343Z,15.64
2023-04-19T20:04:27.720Z,15.63
2023-04-19T20:09:23.015Z,15.63
2023-04-19T20:11:49.132Z,15.63
2023-04-19T20:14:15.259Z,15.63
2023-04-19T20:16:41.376Z,15.62
2023-04-19T20:19:07.513Z,15.63
2023-04-19T20:21:33.648Z,15.63
2023-04-19T20:23:59.751Z,15.63
2023-04-19T20:26:25.842Z,15.62
2023-04-19T20:28:51.941Z,15.62
2023-04-19T20:31:18.033Z,15.61
2023-04-19T20:33:44.124Z,15.62
2023-04-19T20:36:10.324Z,15.61
2023-04-19T20:38:36.429Z,15.61
2023-04-19T20:41:02.520Z,15.62
2023-04-19T20:43:28.664Z,15.61
2023-04-19T20:45:54.773Z,15.61
2023-04-19T20:48:20.881Z,15.60
2023-04-19T20:50:46.994Z,15.60
2023-04-19T20:53:13.090Z,15.61
2023-04-19T20:55:39.183Z,15.60
2023-04-19T20:58:05.311Z,15.60
2023-04-19T21:00:31.426Z,15.59
2023-04-19T21:02:57.672Z,15.60
2023-04-19T21:05:23.873Z,15.58
2023-04-19T21:07:49.962Z,15.59
2023-04-19T21:10:16.077Z,15.58
2023-04-19T21:12:42.176Z,15.59
2023-04-19T21:15:08.269Z,15.57
2023-04-19T21:17:34.413Z,15.58
2023-04-19T21:20:00.607Z,15.58
2023-04-19T21:22:26.727Z,15.58
2023-04-19T21:24:52.833Z,15.57
2023-04-19T21:27:18.953Z,15.58
2023-04-19T21:29:45.048Z,15.59
2023-04-19T21:32:11.148Z,15.58
2023-04-19T21:34:37.305Z,15.58
2023-04-19T21:37:03.392Z,15.57
2023-04-19T21:39:29.499Z,15.57
2023-04-19T21:41:55.692Z,15.57
2023-04-19T21:44:21.784Z,15.57
2023-04-19T21:46:48.574Z,15.57
2023-04-19T21:49:14.939Z,15.57
2023-04-19T21:51:41.218Z,15.57
2023-04-19T21:54:07.317Z,15.57
2023-04-19T21:56:33.421Z,15.58
2023-04-19T21:58:59.514Z,15.56
2023-04-19T22:01:25.685Z,15.55
2023-04-19T22:03:52.112Z,15.55
2023-04-19T22:06:18.437Z,15.56
2023-04-19T22:08:44.528Z,15.55
2023-04-19T22:11:10.651Z,15.55
2023-04-19T22:13:36.737Z,15.57
2023-04-19T22:16:02.910Z,15.56
2023-04-19T22:18:29.089Z,15.55
2023-04-19T22:20:55.182Z,15.56
2023-04-19T22:23:21.274Z,15.57
2023-04-19T22:25:47.380Z,15.57
2023-04-19T22:28:13.484Z,15.55
2023-04-19T22:30:39.583Z,15.55
2023-04-19T22:33:05.780Z,15.57
2023-04-19T22:35:31.904Z,15.55
2023-04-19T22:37:58.009Z,15.56
2023-04-19T22:40:24.108Z,15.57
2023-04-19T22:42:50.206Z,15.55
2023-04-19T22:45:16.333Z,15.55
2023-04-19T22:47:42.595Z,15.56
2023-04-19T22:50:08.713Z,15.56
2023-04-19T22:52:34.814Z,15.55
2023-04-19T22:55:00.945Z,15.55
2023-04-19T22:57:27.063Z,15.56
2023-04-19T22:59:53.150Z,15.55
2023-04-19T23:02:19.309Z,15.55
2023-04-19T23:04:45.482Z,15.56
2023-04-19T23:07:11.584Z,15.56
2023-04-19T23:09:37.699Z,15.55
2023-04-19T23:12:03.813Z,15.55
2023-04-19T23:14:29.928Z,15.55
2023-04-19T23:16:56.044Z,15.54
2023-04-19T23:19:22.137Z,15.54
2023-04-19T23:21:48.224Z,15.54
2023-04-19T23:24:14.339Z,15.53
2023-04-19T23:26:40.462Z,15.52
2023-04-19T23:29:06.561Z,15.51
2023-04-19T23:31:32.708Z,15.51
2023-04-19T23:33:58.850Z,15.51
2023-04-19T23:36:24.959Z,15.50
2023-04-19T23:38:51.966Z,15.49
2023-04-19T23:41:18.058Z,15.49
2023-04-19T23:43:44.159Z,15.49
2023-04-19T23:46:10.338Z,15.47
2023-04-19T23:48:36.459Z,15.47
2023-04-19T23:51:02.558Z,15.48
2023-04-19T23:53:28.673Z,15.48
2023-04-19T23:55:54.768Z,15.47
2023-04-19T23:58:20.873Z,15.48
